createdAt,value
2023-03-24T04:49:03.333Z,915.85
2023-03-24T04:51:31.159Z,907.95
2023-03-24T04:53:57.821Z,911.97
2023-03-24T04:56:36.549Z,908.47
2023-03-24T04:59:03.298Z,912.97
2023-03-24T05:01:30.832Z,910.17
2023-03-24T05:03:58.370Z,913.22
2023-03-24T05:06:25.995Z,901.90
2023-03-24T05:08:52.988Z,908.10
2023-03-24T05:11:20.538Z,910.72
2023-03-24T05:13:47.610Z,914.53
2023-03-24T05:16:15.151Z,916.45
2023-03-24T05:18:42.223Z,915.20
2023-03-24T05:21:09.288Z,919.78
2023-03-24T05:23:36.062Z,915.42
2023-03-24T05:26:03.459Z,917.55
2023-03-24T05:28:30.299Z,916.65
2023-03-24T05:30:56.988Z,930.45
2023-03-24T05:33:23.793Z,934.55
2023-03-24T05:35:50.528Z,928.87
2023-03-24T05:38:17.210Z,934.80
2023-03-24T05:40:43.908Z,931.60
2023-03-24T05:43:12.187Z,934.78
2023-03-24T05:45:39.416Z,935.80
2023-03-24T05:48:06.378Z,938.50
2023-03-24T05:50:33.554Z,926.20
2023-03-24T05:53:00.838Z,931.67
2023-03-24T05:55:27.474Z,931.28
2023-03-24T05:57:54.151Z,949.63
2023-03-24T06:00:21.103Z,945.38
2023-03-24T06:02:47.827Z,941.07
2023-03-24T06:05:14.688Z,932.78
2023-03-24T06:07:44.374Z,928.20
2023-03-24T06:10:14.413Z,926.92
2023-03-24T06:12:41.576Z,931.13
2023-03-24T06:15:09.322Z,931.70
2023-03-24T06:17:37.371Z,925.05
2023-03-24T06:20:05.913Z,922.42
2023-03-24T06:22:33.746Z,924.53
2023-03-24T06:25:00.732Z,912.17
2023-03-24T06:27:30.409Z,924.80
2023-03-24T06:30:00.251Z,927.47
2023-03-24T06:32:27.259Z,925.03
2023-03-24T06:34:54.223Z,923.80
2023-03-24T06:37:24.076Z,922.45
2023-03-24T06:39:50.846Z,927.53
2023-03-24T06:42:18.581Z,930.45
2023-03-24T06:44:45.447Z,934.83
2023-03-24T06:47:12.079Z,944.97
2023-03-24T06:49:38.795Z,939.58
2023-03-24T06:52:05.646Z,958.53
2023-03-24T06:54:32.297Z,961.10
2023-03-24T06:56:58.935Z,954.38
2023-03-24T06:59:25.691Z,958.83
2023-03-24T07:01:53.171Z,950.97
2023-03-24T07:04:21.364Z,949.47
2023-03-24T07:07:03.523Z,957.40
2023-03-24T07:09:34.798Z,941.38
2023-03-24T07:12:03.395Z,948.42
2023-03-24T07:14:30.170Z,944.83
2023-03-24T07:16:56.856Z,957.60
2023-03-24T07:19:23.548Z,958.50
2023-03-24T07:21:50.350Z,965.80
2023-03-24T07:24:17.713Z,965.60
2023-03-24T07:26:44.469Z,962.97
2023-03-24T07:29:11.858Z,959.58
2023-03-24T07:31:39.360Z,965.45
2023-03-24T07:34:06.843Z,949.10
2023-03-24T07:36:33.713Z,960.03
2023-03-24T07:39:00.744Z,953.05
2023-03-24T07:41:29.238Z,951.22
2023-03-24T07:43:55.903Z,961.80
2023-03-24T07:46:22.745Z,958.07
2023-03-24T07:48:49.354Z,958.50
2023-03-24T07:51:17.946Z,961.33
2023-03-24T07:53:45.678Z,950.95
2023-03-24T07:56:12.424Z,949.28
2023-03-24T07:58:39.101Z,943.45
2023-03-24T08:01:12.632Z,943.63
2023-03-24T08:03:40.827Z,944.38
2023-03-24T08:06:09.398Z,938.13
2023-03-24T08:08:36.868Z,939.58
2023-03-24T08:11:04.591Z,933.92
2023-03-24T08:13:31.314Z,935.42
2023-03-24T08:15:57.975Z,944.38
2023-03-24T08:18:25.254Z,947.10
2023-03-24T08:20:57.764Z,944.20
2023-03-24T08:23:25.065Z,963.40
2023-03-24T08:25:51.826Z,948.33
2023-03-24T08:28:18.520Z,951.28
2023-03-24T08:30:45.314Z,957.00
2023-03-24T08:33:14.373Z,964.05
2023-03-24T08:35:41.429Z,967.13
2023-03-24T08:38:09.558Z,975.93
2023-03-24T08:40:38.588Z,962.72
2023-03-24T08:43:11.005Z,972.08
2023-03-24T08:45:38.311Z,967.38
2023-03-24T08:48:07.337Z,971.45
2023-03-24T08:50:37.377Z,967.58
2023-03-24T08:53:04.808Z,958.72
2023-03-24T08:55:33.018Z,949.60
2023-03-24T08:58:00.377Z,958.60
2023-03-24T09:00:28.837Z,953.97
2023-03-24T09:02:56.463Z,951.95
2023-03-24T09:05:37.133Z,956.17
2023-03-24T09:08:11.420Z,953.70
2023-03-24T09:10:40.010Z,968.27
2023-03-24T09:13:06.962Z,977.43
2023-03-24T09:15:34.097Z,975.75
2023-03-24T09:18:01.931Z,978.40
2023-03-24T09:20:28.959Z,977.67
2023-03-24T09:22:56.124Z,978.05
2023-03-24T09:25:24.274Z,977.80
2023-03-24T09:27:51.069Z,962.47
2023-03-24T09:30:19.048Z,970.65
2023-03-24T09:32:46.486Z,970.33
2023-03-24T09:35:13.568Z,974.53
2023-03-24T09:37:41.073Z,968.17
2023-03-24T09:40:08.416Z,970.40
2023-03-24T09:42:41.205Z,968.47
2023-03-24T09:45:18.242Z,971.13
2023-03-24T09:47:54.653Z,969.70
2023-03-24T09:50:48.340Z,968.05
2023-03-24T09:53:34.627Z,973.70
2023-03-24T09:56:16.178Z,966.78
2023-03-24T09:58:45.384Z,974.42
2023-03-24T10:01:15.240Z,974.90
2023-03-24T10:03:46.431Z,975.97
2023-03-24T10:06:39.810Z,950.20
2023-03-24T10:09:34.817Z,954.20
2023-03-24T10:12:16.292Z,953.08
2023-03-24T10:14:57.952Z,944.08
2023-03-24T10:17:53.821Z,949.55
2023-03-24T10:20:41.446Z,955.30
2023-03-24T10:23:32.911Z,972.22
2023-03-24T10:26:12.160Z,946.67
2023-03-24T10:28:52.290Z,955.22
2023-03-24T10:31:27.872Z,948.90
2023-03-24T10:33:54.749Z,944.13
2023-03-24T10:36:23.189Z,948.92
2023-03-24T10:38:49.852Z,968.42
2023-03-24T10:41:28.971Z,964.45
2023-03-24T10:43:59.186Z,969.23
2023-03-24T10:46:28.334Z,968.13
2023-03-24T10:49:10.081Z,959.22
2023-03-24T10:51:37.097Z,973.28
2023-03-24T10:54:12.665Z,966.97
2023-03-24T10:56:43.221Z,951.58
2023-03-24T10:59:27.519Z,945.53
2023-03-24T11:02:14.585Z,937.33
2023-03-24T11:04:48.255Z,923.65
2023-03-24T11:07:20.668Z,927.00
2023-03-24T11:10:01.012Z,925.83
2023-03-24T11:12:33.394Z,933.47
2023-03-24T11:15:20.134Z,927.28
2023-03-24T11:17:56.695Z,924.70
2023-03-24T11:20:36.282Z,922.08
2023-03-24T11:23:28.124Z,923.10
2023-03-24T11:26:08.714Z,928.20
2023-03-24T11:28:42.741Z,926.47
2023-03-24T11:31:11.846Z,931.65
2023-03-24T11:33:47.241Z,928.07
2023-03-24T11:36:30.164Z,933.63
2023-03-24T11:39:21.687Z,927.05
2023-03-24T11:41:53.101Z,920.30
2023-03-24T11:44:22.876Z,929.63
2023-03-24T11:46:55.694Z,921.30
2023-03-24T11:49:30.385Z,921.92
2023-03-24T11:51:57.287Z,914.90
2023-03-24T11:54:32.491Z,925.73
2023-03-24T11:57:11.707Z,914.13
2023-03-24T12:00:13.534Z,915.30
2023-03-24T12:02:42.739Z,905.17
2023-03-24T12:05:24.356Z,909.63
2023-03-24T12:08:14.087Z,907.22
2023-03-24T12:11:05.656Z,903.67
2023-03-24T12:13:49.176Z,914.03
2023-03-24T12:16:43.491Z,909.13
2023-03-24T12:19:34.541Z,896.80
2023-03-24T12:22:32.603Z,907.67
2023-03-24T12:25:27.707Z,897.05
2023-03-24T12:28:09.350Z,901.47
2023-03-24T12:30:45.299Z,897.25
2023-03-24T12:33:38.432Z,903.03
2023-03-24T12:36:45.884Z,895.93
2023-03-24T12:39:23.905Z,903.00
2023-03-24T12:42:06.576Z,906.95
2023-03-24T12:44:47.967Z,902.72
2023-03-24T12:47:38.818Z,909.65
2023-03-24T12:50:37.994Z,900.83
2023-03-24T12:53:34.404Z,904.85
2023-03-24T12:56:03.836Z,910.58
2023-03-24T12:58:46.849Z,905.63
2023-03-24T13:01:29.529Z,917.15
2023-03-24T13:04:26.625Z,922.13
2023-03-24T13:07:03.449Z,914.47
2023-03-24T13:09:59.196Z,918.60
2023-03-24T13:13:03.790Z,920.72
2023-03-24T13:15:43.268Z,922.33
2023-03-24T13:18:10.026Z,928.50
2023-03-24T13:20:50.247Z,917.22
2023-03-24T13:23:45.730Z,914.15
2023-03-24T13:26:15.357Z,916.08
2023-03-24T13:29:14.460Z,926.78
2023-03-24T13:31:51.633Z,921.42
2023-03-24T13:34:36.191Z,926.88
2023-03-24T13:37:12.406Z,917.17
2023-03-24T13:39:39.286Z,913.80
2023-03-24T13:42:06.248Z,908.45
2023-03-24T13:44:42.532Z,911.17
2023-03-24T13:47:17.428Z,909.78
2023-03-24T13:49:56.538Z,910.92
2023-03-24T13:52:36.469Z,914.15
2023-03-24T13:55:10.768Z,913.33
2023-03-24T13:57:41.766Z,910.73
2023-03-24T14:00:14.317Z,909.83
2023-03-24T14:02:43.761Z,909.97
2023-03-24T14:05:30.052Z,906.33
2023-03-24T14:08:05.883Z,908.05
2023-03-24T14:10:38.636Z,900.60
2023-03-24T14:13:14.119Z,905.28
2023-03-24T14:16:07.412Z,885.47
2023-03-24T14:18:34.486Z,894.78
2023-03-24T14:21:04.472Z,904.97
2023-03-24T14:23:49.341Z,903.45
2023-03-24T14:26:23.221Z,903.17
2023-03-24T14:28:52.408Z,908.75
2023-03-24T14:31:29.465Z,916.33
2023-03-24T14:34:02.598Z,911.65
2023-03-24T14:36:31.135Z,909.45
2023-03-24T14:39:13.954Z,910.63
2023-03-24T14:41:44.243Z,911.08
2023-03-24T14:44:11.486Z,907.28
2023-03-24T14:46:50.232Z,910.55
2023-03-24T14:49:33.578Z,906.45
2023-03-24T14:52:39.683Z,907.17
2023-03-24T14:55:19.470Z,907.88
2023-03-24T14:57:51.315Z,918.42
2023-03-24T15:00:27.635Z,906.35
2023-03-24T15:03:26.640Z,901.58
2023-03-24T15:05:53.554Z,910.05
2023-03-24T15:08:22.319Z,900.22
2023-03-24T15:10:55.456Z,901.97
2023-03-24T15:13:39.045Z,910.58
2023-03-24T15:16:11.502Z,898.87
2023-03-24T15:19:01.812Z,910.17
2023-03-24T15:21:38.269Z,910.55
2023-03-24T15:24:38.037Z,907.33
2023-03-24T15:27:17.858Z,901.33
2023-03-24T15:29:45.568Z,904.13
2023-03-24T15:32:19.158Z,914.08
2023-03-24T15:34:52.183Z,897.63
2023-03-24T15:37:25.026Z,887.40
2023-03-24T15:40:01.778Z,889.28
2023-03-24T15:42:33.195Z,884.63
2023-03-24T15:45:26.095Z,893.78
2023-03-24T15:47:54.390Z,893.42
2023-03-24T15:50:35.449Z,892.05
2023-03-24T15:53:14.210Z,900.60
2023-03-24T15:55:43.370Z,889.25
2023-03-24T15:58:27.859Z,901.90
2023-03-24T16:00:59.712Z,890.63
2023-03-24T16:03:27.469Z,884.00
2023-03-24T16:05:56.650Z,879.20
2023-03-24T16:08:40.976Z,880.20
2023-03-24T16:11:13.847Z,884.78
2023-03-24T16:13:43.286Z,886.50
2023-03-24T16:16:15.967Z,890.63
2023-03-24T16:18:48.613Z,876.83
2023-03-24T16:21:18.494Z,888.95
2023-03-24T16:23:46.482Z,882.70
2023-03-24T16:26:18.300Z,886.22
2023-03-24T16:28:46.565Z,881.90
2023-03-24T16:31:26.682Z,874.65
2023-03-24T16:33:55.934Z,872.30
2023-03-24T16:36:26.541Z,873.10
2023-03-24T16:38:55.162Z,870.35
2023-03-24T16:41:22.280Z,860.00
2023-03-24T16:43:48.990Z,867.67
2023-03-24T16:46:36.253Z,875.70
2023-03-24T16:49:05.375Z,870.90
2023-03-24T16:51:32.310Z,860.08
2023-03-24T16:53:59.339Z,860.85
2023-03-24T16:56:26.525Z,866.17
2023-03-24T16:58:54.470Z,873.25
2023-03-24T17:01:37.292Z,865.33
2023-03-24T17:04:13.128Z,864.90
2023-03-24T17:06:43.562Z,864.20
2023-03-24T17:09:12.542Z,862.97
2023-03-24T17:11:42.233Z,869.05
2023-03-24T17:14:12.286Z,865.67
2023-03-24T17:16:43.801Z,867.30
2023-03-24T17:19:15.373Z,863.00
2023-03-24T17:21:45.839Z,862.08
2023-03-24T17:24:13.468Z,864.33
2023-03-24T17:26:41.812Z,874.97
2023-03-24T17:29:14.708Z,880.42
2023-03-24T17:31:43.118Z,871.15
2023-03-24T17:34:21.534Z,866.00
2023-03-24T17:36:50.345Z,868.72
2023-03-24T17:39:18.754Z,860.67
2023-03-24T17:41:45.604Z,868.58
2023-03-24T17:44:12.345Z,865.40
2023-03-24T17:46:39.065Z,860.60
2023-03-24T17:49:06.333Z,859.42
2023-03-24T17:51:33.038Z,859.05
2023-03-24T17:53:59.876Z,859.53
2023-03-24T17:56:26.801Z,864.33
2023-03-24T17:58:56.289Z,877.75
2023-03-24T18:01:23.571Z,860.85
2023-03-24T18:03:51.368Z,857.35
2023-03-24T18:06:18.180Z,863.05
2023-03-24T18:08:45.154Z,852.83
2023-03-24T18:11:14.555Z,853.40
2023-03-24T18:13:41.959Z,857.70
2023-03-24T18:16:19.957Z,852.90
2023-03-24T18:18:48.481Z,860.92
2023-03-24T18:21:15.291Z,838.88
2023-03-24T18:23:41.933Z,844.95
2023-03-24T18:26:09.111Z,857.83
2023-03-24T18:28:40.013Z,849.15
2023-03-24T18:31:20.006Z,852.45
2023-03-24T18:33:51.058Z,854.30
2023-03-24T18:36:26.193Z,856.45
2023-03-24T18:38:58.283Z,855.47
2023-03-24T18:41:28.550Z,848.47
2023-03-24T18:43:56.506Z,850.72
2023-03-24T18:46:23.606Z,829.17
2023-03-24T18:48:53.000Z,831.75
2023-03-24T18:51:21.446Z,821.78
2023-03-24T18:53:49.238Z,847.72
2023-03-24T18:56:16.736Z,848.33
2023-03-24T18:58:44.158Z,830.22
2023-03-24T19:01:13.267Z,829.13
2023-03-24T19:03:41.920Z,829.30
2023-03-24T19:06:10.980Z,825.28
2023-03-24T19:08:40.823Z,822.83
2023-03-24T19:11:08.719Z,819.45
2023-03-24T19:13:36.300Z,828.70
2023-03-24T19:16:04.603Z,818.80
2023-03-24T19:18:31.312Z,822.28
2023-03-24T19:20:58.840Z,828.75
2023-03-24T19:23:26.277Z,826.80
2023-03-24T19:25:56.155Z,825.10
2023-03-24T19:28:24.413Z,817.58
2023-03-24T19:30:51.478Z,828.65
2023-03-24T19:33:18.159Z,834.03
2023-03-24T19:35:48.084Z,831.03
2023-03-24T19:38:16.216Z,829.20
2023-03-24T19:40:43.019Z,827.85
2023-03-24T19:43:09.841Z,823.03
2023-03-24T19:45:36.469Z,827.25
2023-03-24T19:48:03.158Z,822.53
2023-03-24T19:50:29.807Z,822.45
2023-03-24T19:52:56.523Z,814.00
2023-03-24T19:55:23.235Z,819.15
2023-03-24T19:57:49.809Z,814.88
2023-03-24T20:00:16.710Z,818.35
2023-03-24T20:02:43.357Z,808.85
2023-03-24T20:05:10.126Z,815.45
2023-03-24T20:07:37.308Z,814.13
2023-03-24T20:10:04.219Z,815.47
2023-03-24T20:12:32.076Z,803.38
2023-03-24T20:14:58.724Z,811.63
2023-03-24T20:17:28.415Z,815.85
2023-03-24T20:19:55.826Z,824.53
2023-03-24T20:22:22.784Z,824.78
2023-03-24T20:24:49.426Z,818.97
2023-03-24T20:27:16.891Z,814.95
2023-03-24T20:29:45.655Z,810.28
2023-03-24T20:32:12.701Z,812.72
2023-03-24T20:34:39.336Z,812.95
2023-03-24T20:37:06.818Z,807.13
2023-03-24T20:39:33.714Z,807.55
2023-03-24T20:42:00.937Z,813.95
2023-03-24T20:44:27.884Z,810.50
2023-03-24T20:46:57.003Z,813.05
2023-03-24T20:49:24.360Z,820.65
2023-03-24T20:51:51.498Z,823.38
2023-03-24T20:54:18.211Z,815.25
2023-03-24T20:56:44.947Z,819.05
2023-03-24T20:59:13.643Z,811.17
2023-03-24T21:01:42.137Z,814.95
2023-03-24T21:04:09.922Z,804.22
2023-03-24T21:06:40.607Z,789.55
2023-03-24T21:09:07.261Z,786.90
2023-03-24T21:11:34.418Z,792.35
2023-03-24T21:14:02.512Z,798.30
2023-03-24T21:16:33.524Z,798.03
2023-03-24T21:19:03.642Z,817.25
2023-03-24T21:21:30.504Z,801.53
2023-03-24T21:23:57.809Z,815.42
2023-03-24T21:26:25.448Z,807.27
2023-03-24T21:28:52.950Z,821.63
2023-03-24T21:31:21.606Z,823.97
2023-03-24T21:33:48.872Z,812.63
2023-03-24T21:36:16.653Z,815.67
2023-03-24T21:38:43.377Z,812.88
2023-03-24T21:41:10.444Z,812.50
2023-03-24T21:43:38.117Z,818.28
2023-03-24T21:46:05.036Z,815.67
2023-03-24T21:48:40.052Z,816.47
2023-03-24T21:51:06.777Z,811.28
2023-03-24T21:53:34.810Z,814.75
2023-03-24T21:56:04.610Z,817.20
2023-03-24T21:58:32.645Z,820.03
2023-03-24T22:01:00.367Z,822.83
2023-03-24T22:03:27.790Z,809.97
2023-03-24T22:05:56.591Z,814.28
2023-03-24T22:08:26.517Z,809.75
2023-03-24T22:11:04.111Z,812.47
2023-03-24T22:13:32.008Z,811.72
2023-03-24T22:16:01.791Z,817.95
2023-03-24T22:18:31.742Z,814.92
2023-03-24T22:21:04.347Z,816.40
2023-03-24T22:23:33.915Z,813.23
2023-03-24T22:26:01.944Z,819.47
2023-03-24T22:28:29.534Z,821.75
2023-03-24T22:31:16.772Z,823.40
2023-03-24T22:33:44.655Z,818.55
2023-03-24T22:36:12.253Z,812.07
2023-03-24T22:38:38.945Z,823.20
2023-03-24T22:41:08.182Z,808.97
2023-03-24T22:43:35.908Z,807.63
2023-03-24T22:46:02.885Z,799.53
2023-03-24T22:48:29.660Z,805.00
2023-03-24T22:50:56.761Z,797.97
2023-03-24T22:53:23.600Z,790.45
2023-03-24T22:55:50.696Z,792.45
2023-03-24T22:58:18.033Z,791.05
2023-03-24T23:00:49.608Z,791.42
2023-03-24T23:03:16.807Z,792.05
2023-03-24T23:05:45.816Z,810.05
2023-03-24T23:08:14.965Z,812.42
2023-03-24T23:10:43.796Z,807.40
2023-03-24T23:13:10.808Z,811.40
2023-03-24T23:15:38.935Z,808.55
2023-03-24T23:18:05.721Z,808.05
2023-03-24T23:20:33.003Z,813.15
2023-03-24T23:23:01.105Z,802.45
2023-03-24T23:25:30.741Z,810.03
2023-03-24T23:27:58.220Z,803.88
2023-03-24T23:30:24.966Z,807.13
2023-03-24T23:32:51.742Z,807.22
2023-03-24T23:35:19.707Z,802.10
2023-03-24T23:37:46.487Z,811.55
2023-03-24T23:40:15.255Z,813.97
2023-03-24T23:42:46.217Z,807.50
2023-03-24T23:45:14.915Z,815.10
2023-03-24T23:47:43.741Z,822.33
2023-03-24T23:50:11.510Z,808.78
2023-03-24T23:52:41.254Z,808.40
2023-03-24T23:55:10.243Z,813.80
2023-03-24T23:57:41.210Z,812.60
